Time;durP1;ratioP1;P1;durP2;ratioP2;P2;SDS_P1;SDS_P2;PMS_P1;PMS_P2;Temp;Humidity;BMP_temperature;BMP_pressure;BME280_temperature;BME280_humidity;BME280_pressure;Samples;Min_cycle;Max_cycle;Signal;HPM_P1;HPM_P2
2020/12/17 00:00:15;;;;;;;5.15;1.40;;;6.00;99.90;;;;;;4401812;32;20062;-58
2020/12/17 00:02:40;;;;;;;7.75;1.42;;;6.00;99.90;;;;;;4386958;32;20055;-55
2020/12/17 00:05:06;;;;;;;1.10;1.00;;;6.00;99.90;;;;;;4396734;32;20117;-55
2020/12/17 00:07:31;;;;;;;10.32;1.50;;;6.10;99.90;;;;;;4385420;32;20058;-53
2020/12/17 00:09:57;;;;;;;1.48;1.37;;;6.20;99.90;;;;;;4390445;32;20094;-56
2020/12/17 00:12:22;;;;;;;0.52;0.52;;;6.10;99.90;;;;;;4400462;32;20555;-57
2020/12/17 00:14:48;;;;;;;1.45;0.93;;;6.20;99.90;;;;;;4400313;32;20066;-57
2020/12/17 00:17:13;;;;;;;0.82;0.75;;;6.20;99.90;;;;;;4397670;32;20082;-53
2020/12/17 00:19:39;;;;;;;1.20;0.73;;;6.20;99.90;;;;;;4386464;32;20125;-53
2020/12/17 00:22:04;;;;;;;1.33;1.20;;;6.20;99.90;;;;;;4385987;32;20082;-52
2020/12/17 00:24:30;;;;;;;2.87;1.10;;;6.30;99.90;;;;;;4385729;32;20067;-58
2020/12/17 00:26:55;;;;;;;2.20;1.05;;;6.30;99.90;;;;;;4384001;32;20066;-58
2020/12/17 00:29:20;;;;;;;2.05;0.98;;;6.30;99.90;;;;;;4385508;32;20058;-58
2020/12/17 00:31:46;;;;;;;1.77;1.15;;;6.20;99.90;;;;;;4386687;32;20410;-59
2020/12/17 00:34:11;;;;;;;1.23;1.12;;;6.20;99.90;;;;;;4383637;32;20218;-55
2020/12/17 00:36:37;;;;;;;3.80;1.15;;;6.30;99.90;;;;;;4386295;32;20075;-58
2020/12/17 00:39:03;;;;;;;1.65;1.30;;;6.20;99.90;;;;;;4385821;32;20066;-57
2020/12/17 00:41:28;;;;;;;0.98;0.98;;;6.10;99.90;;;;;;4386345;32;20441;-54
2020/12/17 00:43:53;;;;;;;0.75;0.70;;;6.20;99.90;;;;;;4385239;32;20065;-54
2020/12/17 00:46:19;;;;;;;1.27;0.93;;;6.10;99.90;;;;;;4384627;32;20078;-55
2020/12/17 00:48:44;;;;;;;2.85;1.45;;;6.00;99.90;;;;;;4385126;32;20524;-58
2020/12/17 00:51:10;;;;;;;1.33;0.77;;;6.20;99.90;;;;;;4384813;32;20079;-54
2020/12/17 00:53:35;;;;;;;1.92;1.20;;;6.10;99.90;;;;;;4384076;32;20114;-57
2020/12/17 00:56:01;;;;;;;2.55;1.58;;;6.10;99.90;;;;;;4384926;32;20058;-54
2020/12/17 00:58:27;;;;;;;2.75;1.20;;;6.10;99.90;;;;;;4383394;32;20423;-60
2020/12/17 01:00:53;;;;;;;0.70;0.70;;;6.10;99.90;;;;;;4385517;32;20450;-55
2020/12/17 01:03:19;;;;;;;3.00;0.77;;;6.10;99.90;;;;;;4385143;32;20131;-56
2020/12/17 01:05:44;;;;;;;1.83;1.40;;;6.10;99.90;;;;;;4393388;32;20553;-56
2020/12/17 01:08:10;;;;;;;0.50;0.50;;;6.10;99.90;;;;;;4400889;32;20062;-57
2020/12/17 01:10:35;;;;;;;2.45;1.55;;;6.10;99.90;;;;;;4394625;32;20090;-55
2020/12/17 01:13:01;;;;;;;1.10;1.08;;;6.10;99.90;;;;;;4385443;32;20134;-59
2020/12/17 01:15:26;;;;;;;1.77;1.35;;;6.20;99.90;;;;;;4384414;32;20055;-58
2020/12/17 01:17:52;;;;;;;0.70;0.70;;;6.10;99.90;;;;;;4392593;32;20065;-58
2020/12/17 01:20:18;;;;;;;0.65;0.65;;;6.00;99.90;;;;;;4399795;32;20390;-57
2020/12/17 01:22:43;;;;;;;1.45;1.05;;;6.10;99.90;;;;;;4400316;32;20062;-57
2020/12/17 01:25:09;;;;;;;1.30;1.17;;;6.00;99.90;;;;;;4398996;32;20074;-59
2020/12/17 01:27:34;;;;;;;0.82;0.82;;;6.10;99.90;;;;;;4399535;32;20078;-54
2020/12/17 01:30:00;;;;;;;1.37;1.17;;;6.10;99.90;;;;;;4400284;32;20062;-59
2020/12/17 01:32:25;;;;;;;4.40;1.05;;;6.20;99.90;;;;;;4400745;32;20058;-58
2020/12/17 01:34:51;;;;;;;0.50;0.50;;;6.10;99.90;;;;;;4386676;32;20066;-58
2020/12/17 01:37:17;;;;;;;4.85;1.83;;;6.10;99.90;;;;;;4398476;32;20057;-59
2020/12/17 01:39:42;;;;;;;1.90;1.05;;;6.20;99.90;;;;;;4400636;32;20116;-57
2020/12/17 01:42:08;;;;;;;3.25;1.65;;;6.20;99.90;;;;;;4398542;32;20074;-55
2020/12/17 01:44:42;;;;;;;1.00;0.95;;;6.20;99.90;;;;;;4399843;32;20062;-54
2020/12/17 01:47:08;;;;;;;0.85;0.60;;;6.10;99.90;;;;;;4399338;32;20125;-55
2020/12/17 01:49:33;;;;;;;1.90;1.12;;;6.10;99.90;;;;;;4398753;32;20058;-57
2020/12/17 01:51:59;;;;;;;3.75;1.12;;;6.10;99.90;;;;;;4399158;32;20507;-58
2020/12/17 01:54:24;;;;;;;1.08;0.95;;;6.00;99.90;;;;;;4398207;32;20074;-57
2020/12/17 01:56:58;;;;;;;0.55;0.55;;;6.10;99.90;;;;;;4399792;32;20476;-59
2020/12/17 01:59:25;;;;;;;0.70;0.70;;;6.00;99.90;;;;;;4398786;32;20066;-58
2020/12/17 02:01:53;;;;;;;1.35;0.90;;;6.10;99.90;;;;;;4400903;32;20491;-54
2020/12/17 02:04:20;;;;;;;1.87;1.20;;;6.00;99.90;;;;;;4399071;32;20506;-59
2020/12/17 02:06:47;;;;;;;5.62;1.80;;;6.00;99.90;;;;;;4385444;32;20062;-56
2020/12/17 02:09:15;;;;;;;0.93;0.80;;;6.00;99.90;;;;;;4385503;32;20082;-54
2020/12/17 02:11:49;;;;;;;1.62;1.12;;;5.90;99.90;;;;;;4385137;32;20062;-57
2020/12/17 02:14:14;;;;;;;0.88;0.88;;;5.90;99.90;;;;;;4384361;32;20067;-57
2020/12/17 02:16:40;;;;;;;1.15;1.08;;;5.80;99.90;;;;;;4385471;32;20077;-58
2020/12/17 02:19:05;;;;;;;5.93;1.52;;;5.80;99.90;;;;;;4399272;32;20062;-60
2020/12/17 02:21:31;;;;;;;1.10;1.00;;;5.70;99.90;;;;;;4400000;32;20120;-60
2020/12/17 02:23:57;;;;;;;1.15;1.05;;;5.70;99.90;;;;;;4399944;32;20426;-58
2020/12/17 02:26:22;;;;;;;1.20;1.10;;;5.80;99.90;;;;;;4399053;32;20136;-58
2020/12/17 02:28:48;;;;;;;1.92;1.42;;;5.70;99.90;;;;;;4398713;32;20070;-55
2020/12/17 02:31:13;;;;;;;1.35;1.23;;;5.60;99.90;;;;;;4400234;32;20501;-53
2020/12/17 02:33:39;;;;;;;0.90;0.90;;;5.60;99.90;;;;;;4403272;32;20066;-58
2020/12/17 02:36:04;;;;;;;0.70;0.70;;;5.50;99.90;;;;;;4402091;32;20436;-57
2020/12/17 02:38:30;;;;;;;1.25;1.15;;;5.40;99.90;;;;;;4402118;32;20054;-58
2020/12/17 02:40:55;;;;;;;1.37;1.27;;;5.30;99.90;;;;;;4401928;32;20067;-56
2020/12/17 02:43:20;;;;;;;0.80;0.80;;;5.20;99.90;;;;;;4400995;32;20074;-56
2020/12/17 02:45:48;;;;;;;6.40;1.90;;;5.20;99.90;;;;;;4402819;32;20502;-56
2020/12/17 02:48:14;;;;;;;0.90;0.90;;;5.20;99.90;;;;;;4388903;32;20412;-57
2020/12/17 02:50:40;;;;;;;0.88;0.88;;;5.10;99.90;;;;;;4401731;32;20185;-57
2020/12/17 02:53:08;;;;;;;0.50;0.50;;;5.10;99.90;;;;;;4401670;32;20511;-57
2020/12/17 02:55:34;;;;;;;1.20;1.08;;;5.10;99.90;;;;;;4387570;32;20128;-56
2020/12/17 02:57:59;;;;;;;1.35;0.95;;;5.10;99.90;;;;;;4388280;32;20074;-56
2020/12/17 03:00:25;;;;;;;0.65;0.65;;;5.10;99.90;;;;;;4401697;32;20075;-55
2020/12/17 03:02:50;;;;;;;0.70;0.70;;;5.10;99.90;;;;;;4401905;32;20062;-58
2020/12/17 03:05:16;;;;;;;2.12;1.42;;;5.20;99.90;;;;;;4397483;32;20511;-56
2020/12/17 03:07:42;;;;;;;1.15;1.00;;;5.20;99.90;;;;;;4385803;32;20429;-56
2020/12/17 03:10:12;;;;;;;1.90;1.10;;;5.10;99.90;;;;;;4393071;32;20082;-53
2020/12/17 03:12:39;;;;;;;0.95;0.95;;;5.10;99.90;;;;;;4401889;32;20500;-54
2020/12/17 03:15:04;;;;;;;0.93;0.90;;;5.00;99.90;;;;;;4402178;32;20090;-56
2020/12/17 03:17:30;;;;;;;1.10;1.00;;;5.00;99.90;;;;;;4396139;32;20406;-57
2020/12/17 03:19:55;;;;;;;1.33;0.95;;;5.00;99.90;;;;;;4386385;32;20083;-58
2020/12/17 03:22:21;;;;;;;1.17;0.70;;;5.00;99.90;;;;;;4386880;32;20054;-57
2020/12/17 03:24:46;;;;;;;3.12;1.67;;;5.00;99.90;;;;;;4386178;32;20516;-57
2020/12/17 03:27:11;;;;;;;1.98;0.98;;;5.00;99.90;;;;;;4386653;32;20118;-54
2020/12/17 03:29:37;;;;;;;1.50;1.12;;;5.00;99.90;;;;;;4387030;32;20075;-57
2020/12/17 03:32:02;;;;;;;1.73;1.33;;;5.00;99.90;;;;;;4386320;32;20079;-58
2020/12/17 03:34:29;;;;;;;5.15;2.03;;;5.10;99.90;;;;;;4387021;32;20405;-58
2020/12/17 03:36:55;;;;;;;1.40;1.08;;;5.10;99.90;;;;;;4386176;32;20572;-56
2020/12/17 03:39:20;;;;;;;1.42;1.33;;;5.00;99.90;;;;;;4386760;32;20066;-57
2020/12/17 03:41:45;;;;;;;0.90;0.90;;;5.00;99.90;;;;;;4386184;32;20066;-57
2020/12/17 03:44:11;;;;;;;0.62;0.62;;;5.00;99.90;;;;;;4386315;32;20066;-57
2020/12/17 03:46:37;;;;;;;1.17;1.10;;;5.00;99.90;;;;;;4384785;32;20079;-57
2020/12/17 03:49:03;;;;;;;1.67;1.27;;;5.00;99.90;;;;;;4385682;32;20054;-56
2020/12/17 03:51:28;;;;;;;1.00;1.00;;;5.00;99.90;;;;;;4386707;32;20066;-53
2020/12/17 03:53:54;;;;;;;1.17;1.08;;;4.90;99.90;;;;;;4384834;32;20079;-56
2020/12/17 03:56:19;;;;;;;0.57;0.57;;;4.90;99.90;;;;;;4386521;32;20193;-57
2020/12/17 03:58:45;;;;;;;1.87;1.50;;;4.80;99.90;;;;;;4386007;32;20058;-57
2020/12/17 04:01:10;;;;;;;1.05;1.02;;;4.90;99.90;;;;;;4386605;32;20554;-59
2020/12/17 04:03:36;;;;;;;0.80;0.80;;;4.80;99.90;;;;;;4386115;32;20385;-57
2020/12/17 04:06:01;;;;;;;3.25;1.05;;;4.80;99.90;;;;;;4395738;32;20066;-57
2020/12/17 04:08:27;;;;;;;3.37;0.93;;;4.80;99.90;;;;;;4400694;32;20074;-58
2020/12/17 04:10:52;;;;;;;1.48;1.00;;;4.70;99.90;;;;;;4393998;32;20130;-57
2020/12/17 04:13:18;;;;;;;1.95;1.55;;;4.70;99.90;;;;;;4384721;32;20078;-57
2020/12/17 04:15:43;;;;;;;0.80;0.80;;;4.70;99.90;;;;;;4386433;32;20121;-58
2020/12/17 04:18:09;;;;;;;0.70;0.70;;;4.60;99.90;;;;;;4394033;32;20078;-57
2020/12/17 04:20:34;;;;;;;0.90;0.90;;;4.60;99.90;;;;;;4401216;32;20070;-56
2020/12/17 04:23:00;;;;;;;0.50;0.50;;;4.60;99.90;;;;;;4401633;32;20074;-56
2020/12/17 04:25:26;;;;;;;0.98;0.98;;;4.60;99.90;;;;;;4400478;32;20074;-57
2020/12/17 04:27:51;;;;;;;0.70;0.70;;;4.50;99.90;;;;;;4399695;32;20069;-58
2020/12/17 04:30:17;;;;;;;1.75;1.35;;;4.60;99.90;;;;;;4400251;32;20078;-54
2020/12/17 04:32:42;;;;;;;0.80;0.75;;;4.60;99.90;;;;;;4400805;32;20054;-57
2020/12/17 04:35:08;;;;;;;1.87;0.93;;;4.60;99.90;;;;;;4401209;32;20062;-56
2020/12/17 04:37:33;;;;;;;1.12;1.08;;;4.60;99.90;;;;;;4400474;32;20074;-57
2020/12/17 04:39:59;;;;;;;2.05;1.27;;;4.60;99.90;;;;;;4400503;32;20122;-57
2020/12/17 04:42:24;;;;;;;1.50;0.98;;;4.40;99.90;;;;;;4400152;32;20563;-57
2020/12/17 04:44:51;;;;;;;1.15;1.05;;;4.40;99.90;;;;;;4401333;32;20066;-57
2020/12/17 04:47:20;;;;;;;4.12;1.33;;;4.30;99.90;;;;;;4400906;32;20078;-55
2020/12/17 04:49:51;;;;;;;1.52;0.85;;;4.40;99.90;;;;;;4398383;32;20503;-57
2020/12/17 04:52:17;;;;;;;;;;;4.40;99.90;;;;;;4400517;32;20113;-58
2020/12/17 04:54:43;;;;;;;0.82;0.82;;;4.40;99.90;;;;;;4397919;32;19969;-56
2020/12/17 04:57:11;;;;;;;1.62;0.98;;;4.40;99.90;;;;;;4398503;32;20051;-57
2020/12/17 04:59:46;;;;;;;1.15;1.05;;;4.30;99.90;;;;;;4400855;32;20066;-57
2020/12/17 05:02:13;;;;;;;1.30;1.20;;;4.30;99.90;;;;;;4400394;32;20066;-54
2020/12/17 05:04:41;;;;;;;0.93;0.80;;;4.30;99.90;;;;;;4397752;32;20409;-57
2020/12/17 05:07:10;;;;;;;1.55;1.02;;;4.20;99.90;;;;;;4385181;32;20074;-58
2020/12/17 05:09:36;;;;;;;2.72;1.20;;;4.20;99.90;;;;;;4376471;32;20066;-59
2020/12/17 05:12:03;;;;;;;4.95;2.05;;;4.30;99.90;;;;;;4398882;32;20074;-56
2020/12/17 05:14:29;;;;;;;0.88;0.88;;;4.30;99.90;;;;;;4399166;32;20066;-58
2020/12/17 05:16:56;;;;;;;1.27;1.08;;;4.30;99.90;;;;;;4398447;32;20065;-57
2020/12/17 05:19:23;;;;;;;3.37;1.98;;;4.40;99.90;;;;;;4384331;32;20444;-57
2020/12/17 05:21:49;;;;;;;1.00;1.00;;;4.50;99.90;;;;;;4382910;32;20496;-56
2020/12/17 05:24:15;;;;;;;4.22;1.80;;;4.50;99.90;;;;;;4394486;32;20078;-59
2020/12/17 05:26:41;;;;;;;5.10;1.80;;;4.50;99.90;;;;;;4394348;32;20071;-57
2020/12/17 05:29:06;;;;;;;0.88;0.88;;;4.20;99.90;;;;;;4399098;32;20069;-55
2020/12/17 05:31:33;;;;;;;0.77;0.77;;;4.20;99.90;;;;;;4387836;32;20058;-57
2020/12/17 05:34:02;;;;;;;1.87;0.82;;;4.30;99.90;;;;;;4385210;32;20074;-58
2020/12/17 05:36:29;;;;;;;1.95;1.00;;;4.30;99.90;;;;;;4399000;32;20087;-56
2020/12/17 05:38:56;;;;;;;0.88;0.88;;;4.10;99.90;;;;;;4399847;32;20494;-57
2020/12/17 05:41:22;;;;;;;10.25;1.73;;;4.10;99.90;;;;;;4399995;32;20070;-57
2020/12/17 05:43:48;;;;;;;0.88;0.88;;;4.10;99.90;;;;;;4399697;32;20075;-56
2020/12/17 05:46:33;;;;;;;0.70;0.70;;;4.20;99.90;;;;;;4399183;32;20070;-57
2020/12/17 05:49:08;;;;;;;1.23;1.20;;;4.20;99.90;;;;;;4399907;32;20141;-58
2020/12/17 05:51:34;;;;;;;5.80;1.62;;;4.20;99.90;;;;;;4398877;32;20109;-54
2020/12/17 05:53:59;;;;;;;0.80;0.80;;;4.00;99.90;;;;;;4398900;32;20058;-57
2020/12/17 05:56:25;;;;;;;2.28;1.60;;;4.00;99.90;;;;;;4399762;32;20432;-58
2020/12/17 05:58:51;;;;;;;3.22;1.48;;;4.00;99.90;;;;;;4398799;32;20077;-54
2020/12/17 06:01:17;;;;;;;1.80;1.00;;;3.90;99.90;;;;;;4395940;32;20061;-57
2020/12/17 06:03:43;;;;;;;1.23;1.12;;;4.00;99.90;;;;;;4395638;32;20062;-55
2020/12/17 06:06:10;;;;;;;0.75;0.75;;;4.00;99.90;;;;;;4387343;32;20509;-56
2020/12/17 06:08:38;;;;;;;3.33;1.25;;;3.80;99.90;;;;;;4390878;32;20106;-54
2020/12/17 06:11:07;;;;;;;1.33;1.08;;;3.90;99.90;;;;;;4391281;32;20063;-55
2020/12/17 06:13:36;;;;;;;0.57;0.57;;;3.80;99.90;;;;;;4396870;32;20070;-58
2020/12/17 06:16:05;;;;;;;1.80;1.30;;;3.70;99.90;;;;;;4397564;32;20126;-58
2020/12/17 06:18:36;;;;;;;0.70;0.70;;;3.80;99.90;;;;;;4378422;32;20094;-58
2020/12/17 06:21:03;;;;;;;1.20;1.12;;;3.70;99.90;;;;;;4393166;32;20062;-57
2020/12/17 06:23:31;;;;;;;0.70;0.70;;;3.80;99.90;;;;;;4394444;32;20066;-55
2020/12/17 06:25:57;;;;;;;0.70;0.70;;;3.80;99.90;;;;;;4394923;32;20051;-58
2020/12/17 06:28:50;;;;;;;1.40;1.30;;;3.90;99.90;;;;;;4386386;32;20128;-57
2020/12/17 06:31:26;;;;;;;1.65;1.05;;;3.90;99.90;;;;;;4373022;32;20066;-57
2020/12/17 06:34:08;;;;;;;3.03;1.83;;;3.90;99.90;;;;;;4375780;32;20190;-57
2020/12/17 06:36:41;;;;;;;0.98;0.98;;;3.90;99.90;;;;;;4392630;32;20066;-55
2020/12/17 06:39:07;;;;;;;7.05;1.67;;;3.80;99.90;;;;;;4396568;32;20573;-55
2020/12/17 06:41:34;;;;;;;0.62;0.62;;;3.80;99.90;;;;;;4386757;32;20072;-55
2020/12/17 06:43:59;;;;;;;2.83;1.15;;;3.80;99.90;;;;;;4381033;32;20058;-58
2020/12/17 06:46:31;;;;;;;1.20;1.10;;;3.90;99.90;;;;;;4379494;32;20579;-58
2020/12/17 06:48:56;;;;;;;0.75;0.75;;;3.90;99.90;;;;;;4394694;32;20070;-55
2020/12/17 06:51:42;;;;;;;1.55;1.45;;;3.90;99.90;;;;;;4395719;32;20507;-57
2020/12/17 06:54:28;;;;;;;1.15;1.05;;;3.90;99.90;;;;;;4385921;32;20468;-56
2020/12/17 06:57:05;;;;;;;3.45;0.93;;;3.80;99.90;;;;;;4381661;32;20066;-58
2020/12/17 06:59:30;;;;;;;3.10;1.42;;;3.90;99.90;;;;;;4383107;32;20497;-56
2020/12/17 07:01:56;;;;;;;1.67;1.58;;;3.90;99.90;;;;;;4381528;32;20067;-58
2020/12/17 07:04:40;;;;;;;3.17;1.25;;;3.90;99.90;;;;;;4390688;32;20386;-56
2020/12/17 07:07:15;;;;;;;1.52;1.25;;;3.80;99.90;;;;;;4396922;32;20158;-55
2020/12/17 07:09:42;;;;;;;0.60;0.60;;;3.90;99.90;;;;;;4383678;32;20078;-55
2020/12/17 07:12:10;;;;;;;1.37;1.27;;;3.80;99.90;;;;;;4380852;32;20058;-57
2020/12/17 07:14:36;;;;;;;4.87;1.42;;;3.70;99.90;;;;;;4397179;32;20418;-53
2020/12/17 07:17:05;;;;;;;1.30;1.20;;;3.80;99.90;;;;;;4398048;32;20066;-57
2020/12/17 07:19:40;;;;;;;1.20;0.85;;;3.70;99.90;;;;;;4391391;32;20066;-55
2020/12/17 07:22:11;;;;;;;1.33;0.98;;;3.90;99.90;;;;;;4393541;32;20167;-54
2020/12/17 07:24:44;;;;;;;3.92;1.25;;;3.90;99.90;;;;;;4372360;32;20520;-57
2020/12/17 07:27:13;;;;;;;9.75;2.65;;;3.80;99.90;;;;;;4390726;32;20062;-59
2020/12/17 07:29:43;;;;;;;2.40;2.00;;;3.90;99.90;;;;;;4385010;32;20058;-59
2020/12/17 07:32:36;;;;;;;5.73;1.23;;;4.00;99.90;;;;;;4384259;32;20078;-58
2020/12/17 07:35:12;;;;;;;1.27;1.17;;;4.20;99.90;;;;;;4386642;32;20184;-59
2020/12/17 07:37:43;;;;;;;5.37;1.50;;;4.20;99.90;;;;;;4384325;32;20079;-57
2020/12/17 07:40:30;;;;;;;1.25;0.98;;;4.20;99.90;;;;;;4385774;32;20086;-56
2020/12/17 07:43:08;;;;;;;0.88;0.88;;;4.20;99.90;;;;;;4395545;32;20127;-56
2020/12/17 07:45:39;;;;;;;0.70;0.70;;;4.00;99.90;;;;;;4399043;32;20054;-56
2020/12/17 07:48:46;;;;;;;0.50;0.50;;;4.10;99.90;;;;;;4387180;32;20082;-56
2020/12/17 07:51:15;;;;;;;0.85;0.85;;;4.10;99.90;;;;;;4385123;32;20086;-58
2020/12/17 07:53:41;;;;;;;2.12;1.60;;;4.20;99.90;;;;;;4399957;32;20078;-55
2020/12/17 07:56:07;;;;;;;2.08;1.10;;;4.20;99.90;;;;;;4399083;32;20055;-57
2020/12/17 07:58:33;;;;;;;3.37;1.67;;;4.20;99.90;;;;;;4384642;32;20050;-55
2020/12/17 08:01:00;;;;;;;1.15;1.12;;;4.20;99.90;;;;;;4383765;32;20126;-58
2020/12/17 08:03:27;;;;;;;0.40;0.40;;;4.30;99.90;;;;;;4384492;32;20456;-56
2020/12/17 08:06:04;;;;;;;2.08;1.35;;;4.20;99.90;;;;;;4390206;32;20159;-58
2020/12/17 08:08:30;;;;;;;0.60;0.60;;;4.20;99.90;;;;;;4399409;32;20124;-55
2020/12/17 08:10:55;;;;;;;1.48;0.98;;;4.20;99.90;;;;;;4397021;32;20077;-55
2020/12/17 08:13:21;;;;;;;0.80;0.80;;;4.30;99.90;;;;;;4396815;32;20054;-58
2020/12/17 08:15:55;;;;;;;1.10;0.90;;;4.30;99.90;;;;;;4392836;32;20058;-56
2020/12/17 08:18:24;;;;;;;0.50;0.50;;;4.30;99.90;;;;;;4385769;32;20046;-56
2020/12/17 08:21:00;;;;;;;1.15;0.77;;;4.50;99.90;;;;;;4399025;32;20066;-58
2020/12/17 08:23:27;;;;;;;2.00;1.33;;;4.70;99.90;;;;;;4389971;32;20141;-55
2020/12/17 08:25:53;;;;;;;1.15;1.10;;;4.80;99.90;;;;;;4398056;32;20055;-59
2020/12/17 08:28:20;;;;;;;1.73;1.62;;;4.60;99.90;;;;;;4388056;32;20078;-57
2020/12/17 08:30:45;;;;;;;0.60;0.60;;;4.50;99.90;;;;;;4384328;32;20058;-55
2020/12/17 08:33:11;;;;;;;4.60;1.00;;;4.50;99.90;;;;;;4385908;32;20149;-59
2020/12/17 08:35:36;;;;;;;1.35;1.25;;;4.40;99.90;;;;;;4381637;32;20054;-56
2020/12/17 08:38:07;;;;;;;1.48;1.27;;;4.40;99.90;;;;;;4394314;32;20063;-57
2020/12/17 08:40:34;;;;;;;4.12;1.65;;;4.40;99.90;;;;;;4395909;32;86335;-56
2020/12/17 08:43:09;;;;;;;1.42;1.10;;;4.60;99.90;;;;;;4396827;32;20062;-59
2020/12/17 08:45:39;;;;;;;0.50;0.50;;;4.60;99.90;;;;;;4396246;32;20069;-59
2020/12/17 08:48:14;;;;;;;4.80;2.10;;;4.60;99.90;;;;;;4380529;32;20161;-58
2020/12/17 08:50:40;;;;;;;1.20;0.88;;;4.60;99.90;;;;;;4382220;32;20126;-57
2020/12/17 08:53:27;;;;;;;27.30;2.55;;;4.60;99.90;;;;;;4384446;32;20489;-55
2020/12/17 08:56:01;;;;;;;3.12;2.00;;;4.60;99.90;;;;;;4397026;32;20184;-59
2020/12/17 08:58:26;;;;;;;1.67;1.15;;;4.60;99.90;;;;;;4393232;32;20066;-57
2020/12/17 09:00:52;;;;;;;4.87;2.30;;;4.70;99.90;;;;;;4383971;32;20120;-58
2020/12/17 09:03:18;;;;;;;4.95;0.88;;;4.80;99.90;;;;;;4384130;32;20086;-58
2020/12/17 09:05:44;;;;;;;0.60;0.60;;;4.70;99.90;;;;;;4390241;32;20320;-56
2020/12/17 09:08:09;;;;;;;0.73;0.73;;;4.70;99.90;;;;;;4386131;32;20555;-58
2020/12/17 09:10:35;;;;;;;0.70;0.70;;;4.80;99.90;;;;;;4390081;32;20067;-60
2020/12/17 09:13:00;;;;;;;1.50;1.15;;;4.80;99.90;;;;;;4384365;32;20070;-54
2020/12/17 09:15:28;;;;;;;2.15;1.75;;;4.80;99.90;;;;;;4386479;32;20094;-56
2020/12/17 09:18:08;;;;;;;5.18;1.77;;;4.90;99.90;;;;;;4393093;32;20086;-58
2020/12/17 09:20:33;;;;;;;1.67;1.48;;;5.00;99.90;;;;;;4397971;32;20507;-58
2020/12/17 09:23:07;;;;;;;3.92;2.05;;;5.00;99.90;;;;;;4395838;32;20062;-56
2020/12/17 09:25:33;;;;;;;0.80;0.80;;;5.20;99.90;;;;;;4390849;32;20094;-58
2020/12/17 09:27:58;;;;;;;1.85;1.37;;;5.10;99.90;;;;;;4394950;32;20070;-57
2020/12/17 09:30:31;;;;;;;1.58;0.93;;;5.20;99.90;;;;;;4397450;32;20119;-56
2020/12/17 09:33:01;;;;;;;4.68;1.85;;;5.20;99.90;;;;;;4393070;32;20471;-61
2020/12/17 09:35:35;;;;;;;1.55;1.17;;;5.30;99.90;;;;;;4396493;32;20516;-54
2020/12/17 09:38:12;;;;;;;1.80;1.62;;;5.40;99.90;;;;;;4396053;32;20437;-57
2020/12/17 09:40:40;;;;;;;1.48;1.05;;;5.40;99.90;;;;;;4393401;32;20078;-58
2020/12/17 09:43:09;;;;;;;1.10;1.00;;;5.40;99.90;;;;;;4380343;32;20087;-60
2020/12/17 09:45:36;;;;;;;0.75;0.75;;;5.50;99.90;;;;;;4389696;32;20461;-58
2020/12/17 09:48:25;;;;;;;1.17;1.10;;;5.50;99.90;;;;;;4397684;32;20069;-58
2020/12/17 09:50:55;;;;;;;1.95;1.50;;;5.60;99.90;;;;;;4383840;32;20070;-57
2020/12/17 09:53:22;;;;;;;;;;;5.60;99.90;;;;;;4394766;32;20094;-57
2020/12/17 09:55:47;;;;;;;3.15;1.83;;;5.60;99.90;;;;;;4397742;32;20238;-58
2020/12/17 09:58:13;;;;;;;3.53;1.48;;;5.50;99.90;;;;;;4397311;32;20367;-57
2020/12/17 10:00:38;;;;;;;0.80;0.80;;;5.60;99.90;;;;;;4396765;32;20070;-60
2020/12/17 10:03:04;;;;;;;1.98;0.90;;;5.60;99.90;;;;;;4397181;32;20204;-59
2020/12/17 10:05:29;;;;;;;5.03;1.23;;;5.80;99.90;;;;;;4391588;32;20405;-59
2020/12/17 10:07:55;;;;;;;0.90;0.85;;;5.80;99.90;;;;;;4395605;32;20090;-57
2020/12/17 10:10:20;;;;;;;4.60;1.10;;;5.80;99.90;;;;;;4393551;32;20089;-58
2020/12/17 10:12:46;;;;;;;2.75;0.90;;;5.70;99.90;;;;;;4389541;32;20055;-59
2020/12/17 10:15:11;;;;;;;4.12;1.60;;;5.80;99.90;;;;;;4397523;32;20058;-56
2020/12/17 10:17:37;;;;;;;0.40;0.40;;;5.90;99.90;;;;;;4390677;32;20101;-57
2020/12/17 10:20:06;;;;;;;0.60;0.60;;;5.90;99.90;;;;;;4394670;32;20598;-58
2020/12/17 10:22:31;;;;;;;0.82;0.82;;;6.00;99.90;;;;;;4393335;32;20484;-56
2020/12/17 10:24:57;;;;;;;7.05;1.60;;;6.10;99.90;;;;;;4387335;32;20062;-56
2020/12/17 10:27:22;;;;;;;1.23;1.12;;;6.10;99.90;;;;;;4386463;32;20161;-59
2020/12/17 10:29:47;;;;;;;0.82;0.82;;;6.20;99.90;;;;;;4382401;32;20307;-58
2020/12/17 10:32:14;;;;;;;2.85;1.17;;;6.30;99.90;;;;;;4392876;32;20082;-58
2020/12/17 10:34:40;;;;;;;1.35;1.25;;;6.50;99.90;;;;;;4390576;32;20058;-59
2020/12/17 10:37:06;;;;;;;6.00;1.17;;;6.50;99.90;;;;;;4395469;32;20074;-58
2020/12/17 10:39:32;;;;;;;1.55;1.27;;;6.50;99.90;;;;;;4386594;32;20430;-59
2020/12/17 10:42:00;;;;;;;2.95;1.92;;;6.70;99.90;;;;;;4385414;32;20066;-58
2020/12/17 10:44:25;;;;;;;0.60;0.60;;;6.90;99.90;;;;;;4394705;32;20165;-57
2020/12/17 10:46:51;;;;;;;0.68;0.55;;;6.90;99.90;;;;;;4396746;32;20160;-53
2020/12/17 10:49:16;;;;;;;2.37;1.00;;;7.00;99.90;;;;;;4396416;32;20058;-55
2020/12/17 10:51:42;;;;;;;0.80;0.80;;;7.10;99.90;;;;;;4396208;32;20132;-57
2020/12/17 10:54:08;;;;;;;1.00;0.70;;;7.20;99.90;;;;;;4398464;32;20511;-57
2020/12/17 10:56:33;;;;;;;0.80;0.80;;;7.40;99.90;;;;;;4397210;32;20066;-59
2020/12/17 10:58:59;;;;;;;1.90;0.82;;;7.50;99.90;;;;;;4385000;32;20063;-58
2020/12/17 11:01:25;;;;;;;2.20;1.12;;;7.60;99.90;;;;;;4392070;32;20528;-59
2020/12/17 11:03:52;;;;;;;2.65;0.70;;;7.70;99.90;;;;;;4398663;32;20597;-58
2020/12/17 11:06:19;;;;;;;1.08;0.98;;;7.80;99.90;;;;;;4389748;32;20512;-59
2020/12/17 11:08:44;;;;;;;0.45;0.45;;;7.80;99.90;;;;;;4386170;32;20075;-58
2020/12/17 11:11:11;;;;;;;0.55;0.55;;;7.80;99.90;;;;;;4390976;32;20116;-58
2020/12/17 11:13:37;;;;;;;2.05;0.98;;;7.80;99.90;;;;;;4394348;32;20114;-58
2020/12/17 11:16:03;;;;;;;1.10;0.77;;;7.80;99.90;;;;;;4392870;32;20547;-57
2020/12/17 11:18:28;;;;;;;0.55;0.55;;;7.80;99.90;;;;;;4393247;32;20070;-58
2020/12/17 11:20:53;;;;;;;1.37;1.02;;;7.80;99.90;;;;;;4389896;32;20082;-58
2020/12/17 11:23:19;;;;;;;0.40;0.40;;;7.70;99.90;;;;;;4391937;32;20058;-59
2020/12/17 11:25:44;;;;;;;0.55;0.55;;;7.80;99.90;;;;;;4396969;32;20122;-58
2020/12/17 11:28:10;;;;;;;0.80;0.80;;;7.70;99.90;;;;;;4390600;32;20070;-59
2020/12/17 11:30:36;;;;;;;0.73;0.70;;;7.80;99.90;;;;;;4392495;32;20116;-59
2020/12/17 11:33:03;;;;;;;0.60;0.60;;;7.80;99.90;;;;;;4390598;32;20066;-59
2020/12/17 11:35:28;;;;;;;1.17;1.08;;;7.90;99.90;;;;;;4393579;32;20082;-60
2020/12/17 11:37:55;;;;;;;2.17;1.08;;;7.80;99.90;;;;;;4395815;32;20507;-58
2020/12/17 11:40:22;;;;;;;2.00;1.30;;;7.90;99.90;;;;;;4393598;32;20891;-60
2020/12/17 11:42:50;;;;;;;0.43;0.43;;;7.80;99.90;;;;;;4385767;32;20528;-59
2020/12/17 11:45:15;;;;;;;0.45;0.45;;;7.90;99.90;;;;;;4401069;32;20070;-62
2020/12/17 11:47:41;;;;;;;2.30;1.15;;;7.90;99.90;;;;;;4400277;32;20070;-62
2020/12/17 11:50:07;;;;;;;0.57;0.57;;;8.00;99.90;;;;;;4376378;32;20070;-59
2020/12/17 11:52:33;;;;;;;2.00;0.75;;;8.20;99.90;;;;;;4386854;32;20074;-59
2020/12/17 11:55:00;;;;;;;5.10;1.33;;;8.20;99.90;;;;;;4372989;32;20114;-57
2020/12/17 11:57:26;;;;;;;0.60;0.60;;;8.40;99.90;;;;;;4397870;32;20122;-60
2020/12/17 11:59:52;;;;;;;1.65;1.33;;;8.90;99.90;;;;;;4398027;32;20066;-59
2020/12/17 12:02:17;;;;;;;1.92;1.30;;;9.20;99.90;;;;;;4398889;32;20086;-56
2020/12/17 12:04:43;;;;;;;1.20;1.10;;;9.30;99.90;;;;;;4397905;32;20069;-59
2020/12/17 12:07:08;;;;;;;0.50;0.50;;;9.40;99.90;;;;;;4387660;32;20087;-58
2020/12/17 12:09:34;;;;;;;0.68;0.60;;;9.30;99.90;;;;;;4392779;32;20066;-60
2020/12/17 12:11:59;;;;;;;1.80;1.17;;;9.30;99.90;;;;;;4391865;32;20067;-59
2020/12/17 12:14:25;;;;;;;4.68;1.08;;;9.40;99.90;;;;;;4397318;32;20109;-58
2020/12/17 12:16:51;;;;;;;1.95;1.48;;;9.40;99.90;;;;;;4398484;32;20128;-59
2020/12/17 12:19:16;;;;;;;2.17;0.93;;;9.40;99.90;;;;;;4396703;32;20058;-58
2020/12/17 12:21:47;;;;;;;1.00;0.82;;;9.30;99.90;;;;;;4398454;32;20137;-59
2020/12/17 12:24:12;;;;;;;2.28;1.48;;;9.30;99.90;;;;;;4385797;32;20075;-60
2020/12/17 12:26:38;;;;;;;0.70;0.70;;;9.40;99.90;;;;;;4392523;32;20078;-60
2020/12/17 12:29:03;;;;;;;2.72;1.15;;;9.40;99.90;;;;;;4394004;32;20125;-57
2020/12/17 12:31:29;;;;;;;3.03;0.90;;;9.30;99.90;;;;;;4397597;32;20382;-60
2020/12/17 12:33:54;;;;;;;1.20;1.10;;;9.40;99.90;;;;;;4388559;32;20123;-58
2020/12/17 12:36:20;;;;;;;1.10;1.00;;;9.40;99.90;;;;;;4388173;32;20126;-59
2020/12/17 12:38:45;;;;;;;2.40;0.88;;;9.70;99.90;;;;;;4398364;32;20579;-56
2020/12/17 12:41:10;;;;;;;6.68;1.02;;;9.90;99.90;;;;;;4396418;32;20137;-59
2020/12/17 12:43:36;;;;;;;0.50;0.50;;;10.20;99.90;;;;;;4395734;32;20061;-59
2020/12/17 12:46:02;;;;;;;1.77;0.95;;;10.10;99.90;;;;;;4397720;32;20070;-60
2020/12/17 12:48:27;;;;;;;0.80;0.80;;;9.80;99.90;;;;;;4396904;32;20074;-56
2020/12/17 12:50:53;;;;;;;0.50;0.50;;;9.90;99.90;;;;;;4392272;32;20073;-57
2020/12/17 12:53:19;;;;;;;1.33;1.10;;;10.20;99.90;;;;;;4382820;32;20127;-59
2020/12/17 12:55:46;;;;;;;0.65;0.65;;;10.20;99.90;;;;;;4395944;32;20748;-59
2020/12/17 12:58:11;;;;;;;0.70;0.70;;;9.90;99.90;;;;;;4396645;32;20062;-59